Time;durP1;ratioP1;P1;durP2;ratioP2;P2;SDS_P1;SDS_P2;PMS_P1;PMS_P2;Temp;Humidity;BMP_temperature;BMP_pressure;BME280_temperature;BME280_humidity;BME280_pressure;Samples;Min_cycle;Max_cycle;Signal;HPM_P1;HPM_P2
2021/12/05 00:18:31;;;;;;;;;;;4.20;25.70;;;;;;5103755;27;19927;-73
2021/12/05 00:21:30;;;;;;;;;;;4.30;24.60;;;;;;5097335;28;19977;-72
2021/12/05 00:24:01;;;;;;;;;;;4.30;22.80;;;;;;5101209;27;20390;-72
2021/12/05 00:26:30;;;;;;;;;;;4.40;21.60;;;;;;5100760;28;19932;-72
2021/12/05 00:29:11;;;;;;;;;;;4.40;21.00;;;;;;5094455;28;19982;-72
2021/12/05 00:31:51;;;;;;;;;;;4.40;19.80;;;;;;5094244;28;19959;-73
2021/12/05 00:48:52;;;;;;;;;;;4.40;18.30;;;;;;5095936;27;19923;-73
2021/12/05 01:11:19;;;;;;;;;;;4.30;16.40;;;;;;5093366;28;19930;-74
2021/12/05 01:14:00;;;;;;;;;;;4.30;16.40;;;;;;5095940;28;19955;-74
2021/12/05 01:16:29;;;;;;;;;;;4.30;15.70;;;;;;5098562;28;19982;-72
2021/12/05 01:18:57;;;;;;;;;;;4.30;16.30;;;;;;5095455;28;19939;-72
2021/12/05 01:21:25;;;;;;;;;;;4.30;15.80;;;;;;5097785;27;19927;-72
2021/12/05 01:24:01;;;;;;;;;;;4.30;15.70;;;;;;5094785;28;19924;-72
2021/12/05 01:26:36;;;;;;;;;;;4.30;16.40;;;;;;5096110;28;19924;-72
2021/12/05 01:29:26;;;;;;;;;;;4.20;19.10;;;;;;5088298;28;19931;-73
2021/12/05 01:32:03;;;;;;;;;;;4.10;20.40;;;;;;5096462;28;20046;-73
2021/12/05 01:34:45;;;;;;;;;;;4.20;20.50;;;;;;5102135;28;19928;-73
2021/12/05 01:37:23;;;;;;;;;;;4.10;21.00;;;;;;5097014;28;19967;-73
2021/12/05 01:40:09;;;;;;;;;;;4.10;22.10;;;;;;5095646;28;19984;-73
2021/12/05 01:48:57;;;;;;;;;;;4.00;23.30;;;;;;5097368;28;19934;-73
2021/12/05 01:51:55;;;;;;;;;;;4.00;23.60;;;;;;5098960;28;20369;-73
2021/12/05 01:57:29;;;;;;;;;;;4.00;23.30;;;;;;5072323;28;20018;-75
2021/12/05 02:00:24;;;;;;;;;;;4.00;23.30;;;;;;5091813;28;19923;-73
2021/12/05 02:07:34;;;;;;;;;;;4.00;24.40;;;;;;5097877;28;19963;-74
2021/12/05 02:08:56;;;;;;;;;;;3.90;23.90;;;;;;5069375;28;20468;-73
2021/12/05 02:11:48;;;;;;;;;;;3.80;24.40;;;;;;5093242;28;20118;-75
2021/12/05 02:33:59;;;;;;;;;;;3.90;25.10;;;;;;5087065;28;19931;-73
2021/12/05 02:42:13;;;;;;;;;;;3.80;26.70;;;;;;5055751;28;20045;-74
2021/12/05 02:44:46;;;;;;;;;;;3.70;28.40;;;;;;5098270;28;19924;-74
2021/12/05 02:47:17;;;;;;;;;;;3.70;28.20;;;;;;5092960;28;19935;-74
2021/12/05 02:49:49;;;;;;;;;;;3.60;28.90;;;;;;5089951;28;19974;-74
2021/12/05 02:52:22;;;;;;;;;;;3.60;29.40;;;;;;5098128;28;20316;-74
2021/12/05 02:54:56;;;;;;;;;;;3.70;29.90;;;;;;5081405;28;19935;-75
2021/12/05 02:57:44;;;;;;;;;;;3.70;29.00;;;;;;5100958;27;19938;-74
2021/12/05 03:00:17;;;;;;;;;;;3.80;28.30;;;;;;5093866;28;19924;-75
2021/12/05 03:02:48;;;;;;;;;;;3.80;27.30;;;;;;5096357;28;19924;-74
2021/12/05 03:05:20;;;;;;;;;;;3.80;27.30;;;;;;5094272;28;19935;-74
2021/12/05 03:07:50;;;;;;;;;;;3.80;27.00;;;;;;5093868;28;20031;-73
2021/12/05 03:10:21;;;;;;;;;;;3.80;25.60;;;;;;5091821;28;20347;-73
2021/12/05 03:12:49;;;;;;;;;;;3.80;25.70;;;;;;5100417;28;19924;-74
2021/12/05 03:15:17;;;;;;;;;;;3.90;25.20;;;;;;5095147;27;20057;-73
2021/12/05 03:17:46;;;;;;;;;;;3.90;24.70;;;;;;5100394;28;20006;-73
2021/12/05 03:20:14;;;;;;;;;;;3.80;25.70;;;;;;5094158;28;20403;-74
2021/12/05 03:22:42;;;;;;;;;;;3.80;25.70;;;;;;5100555;27;20398;-74
2021/12/05 03:25:11;;;;;;;;;;;3.80;25.60;;;;;;5098344;28;19924;-73
2021/12/05 03:27:41;;;;;;;;;;;3.80;25.60;;;;;;5097780;28;20375;-73
2021/12/05 03:30:10;;;;;;;;;;;3.90;25.70;;;;;;5095883;28;20036;-74
2021/12/05 03:32:38;;;;;;;;;;;3.80;25.60;;;;;;5098922;28;19936;-74
2021/12/05 03:35:08;;;;;;;;;;;3.90;25.00;;;;;;5101171;27;19931;-73
2021/12/05 03:37:36;;;;;;;;;;;3.80;25.60;;;;;;5100376;28;19928;-74
2021/12/05 03:40:07;;;;;;;;;;;3.80;24.40;;;;;;5095677;28;19932;-74
2021/12/05 03:42:35;;;;;;;;;;;3.80;24.30;;;;;;5093967;27;19932;-74
2021/12/05 03:45:06;;;;;;;;;;;3.80;24.30;;;;;;5098545;28;19977;-74
2021/12/05 03:47:36;;;;;;;;;;;3.90;23.50;;;;;;5103171;28;20406;-73
2021/12/05 03:50:05;;;;;;;;;;;3.90;23.30;;;;;;5093383;28;19928;-74
2021/12/05 03:52:33;;;;;;;;;;;3.90;22.30;;;;;;5100348;28;19924;-74
2021/12/05 03:55:01;;;;;;;;;;;4.00;22.40;;;;;;5095125;28;19932;-74
2021/12/05 03:57:31;;;;;;;;;;;4.00;22.30;;;;;;5100545;27;20743;-74
2021/12/05 03:59:59;;;;;;;;;;;3.90;21.50;;;;;;5089871;28;19924;-73
2021/12/05 04:02:28;;;;;;;;;;;3.90;21.60;;;;;;5102233;27;20318;-73
2021/12/05 04:04:56;;;;;;;;;;;3.90;22.30;;;;;;5096496;27;19932;-73
2021/12/05 04:07:24;;;;;;;;;;;3.90;22.40;;;;;;5102993;28;19930;-73
2021/12/05 04:09:53;;;;;;;;;;;3.90;22.30;;;;;;5091847;27;20022;-73
2021/12/05 04:12:22;;;;;;;;;;;3.90;22.30;;;;;;5098983;27;20443;-74
2021/12/05 04:14:54;;;;;;;;;;;3.80;22.30;;;;;;5095090;28;20094;-73
2021/12/05 04:17:23;;;;;;;;;;;3.80;22.80;;;;;;5099556;28;19923;-73
2021/12/05 04:19:52;;;;;;;;;;;3.70;24.80;;;;;;5095085;28;20327;-73
2021/12/05 04:22:20;;;;;;;;;;;3.60;25.50;;;;;;5101451;28;20363;-73
2021/12/05 04:24:48;;;;;;;;;;;3.60;25.50;;;;;;5097266;27;19955;-74
2021/12/05 04:27:16;;;;;;;;;;;3.60;25.60;;;;;;5099618;28;19939;-74
2021/12/05 04:29:44;;;;;;;;;;;3.50;25.50;;;;;;5093862;28;19930;-74
2021/12/05 04:32:13;;;;;;;;;;;3.40;26.40;;;;;;5102045;28;19955;-73
2021/12/05 04:34:41;;;;;;;;;;;3.30;27.10;;;;;;5102995;28;19928;-74
2021/12/05 04:37:10;;;;;;;;;;;3.30;28.30;;;;;;5098573;27;19932;-74
2021/12/05 04:39:38;;;;;;;;;;;3.30;28.60;;;;;;5096221;27;20365;-74
2021/12/05 04:42:06;;;;;;;;;;;3.30;28.50;;;;;;5100339;27;19969;-74
2021/12/05 04:44:34;;;;;;;;;;;3.30;28.70;;;;;;5099966;28;19931;-74
2021/12/05 04:47:02;;;;;;;;;;;3.30;28.00;;;;;;5098812;27;20385;-73
2021/12/05 04:49:30;;;;;;;;;;;3.30;27.60;;;;;;5092208;28;19939;-74
2021/12/05 04:51:58;;;;;;;;;;;3.40;26.40;;;;;;5093924;27;19943;-74
2021/12/05 04:54:27;;;;;;;;;;;3.40;26.00;;;;;;5100673;27;19967;-74
2021/12/05 04:56:55;;;;;;;;;;;3.40;25.90;;;;;;5096148;28;20375;-73
2021/12/05 04:59:25;;;;;;;;;;;3.40;25.40;;;;;;5092764;27;19928;-73
2021/12/05 05:01:54;;;;;;;;;;;3.50;24.90;;;;;;5098931;28;20176;-74
2021/12/05 05:04:26;;;;;;;;;;;3.40;24.00;;;;;;5096416;28;19924;-73
2021/12/05 05:06:54;;;;;;;;;;;3.40;25.40;;;;;;5099132;27;19932;-73
2021/12/05 05:09:25;;;;;;;;;;;3.40;25.40;;;;;;5092332;28;19935;-74
2021/12/05 05:11:54;;;;;;;;;;;3.20;25.30;;;;;;5089478;28;20014;-74
2021/12/05 05:14:22;;;;;;;;;;;3.20;26.20;;;;;;5098256;27;19996;-74
2021/12/05 05:16:54;;;;;;;;;;;3.10;26.80;;;;;;5100082;28;20133;-74
2021/12/05 05:19:26;;;;;;;;;;;3.00;27.60;;;;;;5090543;28;19977;-74
2021/12/05 05:22:03;;;;;;;;;;;3.00;28.00;;;;;;5100627;28;19924;-73
2021/12/05 05:25:12;;;;;;;;;;;2.90;28.50;;;;;;5101141;27;20101;-74
2021/12/05 05:27:57;;;;;;;;;;;2.90;28.70;;;;;;5099960;27;19930;-73
2021/12/05 05:30:44;;;;;;;;;;;2.90;29.20;;;;;;5092081;28;19932;-74
2021/12/05 05:42:07;;;;;;;;;;;2.90;29.70;;;;;;5096422;28;19924;-74
2021/12/05 05:44:44;;;;;;;;;;;2.90;30.20;;;;;;5100009;28;19930;-73
2021/12/05 05:47:15;;;;;;;;;;;2.90;30.60;;;;;;5096772;27;19932;-74
2021/12/05 05:49:56;;;;;;;;;;;3.00;30.00;;;;;;5089872;28;19928;-74
2021/12/05 05:52:24;;;;;;;;;;;3.00;29.40;;;;;;5094015;28;19928;-74
2021/12/05 05:54:54;;;;;;;;;;;3.00;29.70;;;;;;5096651;28;19927;-74
2021/12/05 05:57:26;;;;;;;;;;;2.90;30.00;;;;;;5100712;28;19967;-74
2021/12/05 06:00:02;;;;;;;;;;;2.90;30.10;;;;;;5091624;28;21246;-73
2021/12/05 06:05:25;;;;;;;;;;;2.90;30.10;;;;;;5063871;28;20383;-74
2021/12/05 06:07:53;;;;;;;;;;;2.90;30.10;;;;;;5094289;28;19930;-74
2021/12/05 06:10:22;;;;;;;;;;;2.90;30.10;;;;;;5090157;28;19932;-74
2021/12/05 06:12:50;;;;;;;;;;;3.00;29.70;;;;;;5095123;28;20322;-75
2021/12/05 06:15:23;;;;;;;;;;;2.90;29.50;;;;;;5096718;28;19924;-73
2021/12/05 06:17:52;;;;;;;;;;;2.90;29.90;;;;;;5092546;28;19932;-73
2021/12/05 06:20:24;;;;;;;;;;;2.90;30.00;;;;;;5089634;28;20169;-74
2021/12/05 06:22:52;;;;;;;;;;;2.90;29.00;;;;;;5093387;28;20538;-73
2021/12/05 06:25:23;;;;;;;;;;;3.00;28.50;;;;;;5097496;28;19938;-73
2021/12/05 06:27:52;;;;;;;;;;;2.90;28.80;;;;;;5095782;28;20611;-72
2021/12/05 06:30:29;;;;;;;;;;;2.90;27.50;;;;;;5094944;28;19924;-73
2021/12/05 06:38:43;;;;;;;;;;;2.80;28.70;;;;;;5062250;28;19924;-73
2021/12/05 06:41:20;;;;;;;;;;;2.70;28.40;;;;;;5092897;28;19967;-73
2021/12/05 06:46:35;;;;;;;;;;;2.60;29.90;;;;;;5094490;28;20388;-73
2021/12/05 06:49:04;;;;;;;;;;;2.60;29.60;;;;;;5091613;28;19976;-73
2021/12/05 06:51:32;;;;;;;;;;;2.50;29.80;;;;;;5098871;28;19924;-73
2021/12/05 06:54:00;;;;;;;;;;;2.50;30.00;;;;;;5098768;28;19934;-73
2021/12/05 06:56:27;;;;;;;;;;;2.40;30.00;;;;;;5102420;27;19928;-73
2021/12/05 06:58:55;;;;;;;;;;;2.30;30.60;;;;;;5096986;27;20295;-73
2021/12/05 07:01:23;;;;;;;;;;;2.20;31.20;;;;;;5096382;28;19939;-74
2021/12/05 07:03:52;;;;;;;;;;;2.20;31.70;;;;;;5098923;27;19963;-74
2021/12/05 07:06:24;;;;;;;;;;;2.20;31.60;;;;;;5102037;28;19961;-74
2021/12/05 07:08:55;;;;;;;;;;;2.10;31.70;;;;;;5113794;27;19978;-74
2021/12/05 07:11:27;;;;;;;;;;;2.00;33.20;;;;;;5096278;28;19924;-74
2021/12/05 07:16:46;;;;;;;;;;;2.10;34.90;;;;;;5102144;27;19924;-74
2021/12/05 07:19:26;;;;;;;;;;;2.00;34.50;;;;;;5095647;27;20011;-74
2021/12/05 07:22:00;;;;;;;;;;;2.00;34.90;;;;;;5104028;28;20022;-74
2021/12/05 07:24:39;;;;;;;;;;;2.10;34.80;;;;;;5100063;27;20000;-74
2021/12/05 07:41:05;;;;;;;;;;;2.40;34.20;;;;;;5098256;27;19931;-74
2021/12/05 07:43:36;;;;;;;;;;;2.40;34.30;;;;;;5102272;27;19924;-74
2021/12/05 07:46:06;;;;;;;;;;;2.50;33.90;;;;;;5100795;27;19930;-74
2021/12/05 07:48:38;;;;;;;;;;;2.50;33.40;;;;;;5096993;28;20366;-75
2021/12/05 07:51:10;;;;;;;;;;;2.60;32.50;;;;;;5095810;28;19924;-74
2021/12/05 07:53:49;;;;;;;;;;;2.60;32.20;;;;;;5099074;28;20400;-75
2021/12/05 07:56:21;;;;;;;;;;;2.60;31.90;;;;;;5100358;28;20035;-74
2021/12/05 07:59:03;;;;;;;;;;;2.70;32.00;;;;;;5092319;27;19931;-75
2021/12/05 08:15:24;;;;;;;;;;;3.10;29.90;;;;;;5098290;28;20416;-75
2021/12/05 08:17:53;;;;;;;;;;;3.10;28.60;;;;;;5098036;27;20407;-75
2021/12/05 08:20:26;;;;;;;;;;;3.10;28.50;;;;;;5098298;28;19924;-75
2021/12/05 08:22:54;;;;;;;;;;;3.10;28.60;;;;;;5094935;28;20401;-75
2021/12/05 08:25:26;;;;;;;;;;;3.00;27.70;;;;;;5099042;28;19924;-74
2021/12/05 08:28:00;;;;;;;;;;;3.00;28.50;;;;;;5099943;28;20080;-74
2021/12/05 08:30:32;;;;;;;;;;;3.10;28.50;;;;;;5097004;28;19976;-75
2021/12/05 08:33:19;;;;;;;;;;;3.20;26.90;;;;;;5095629;27;19923;-75
2021/12/05 08:36:13;;;;;;;;;;;3.20;26.20;;;;;;5099701;28;19927;-74
2021/12/05 08:39:21;;;;;;;;;;;3.20;25.70;;;;;;5097003;28;20387;-75
2021/12/05 08:42:15;;;;;;;;;;;3.20;26.20;;;;;;5098216;28;19934;-75
2021/12/05 09:30:04;;;;;;;;;;;4.60;15.90;;;;;;5067177;28;20150;-74
2021/12/05 10:03:36;;;;;;;;;;;5.10;11.80;;;;;;5099286;28;19924;-74
2021/12/05 10:08:56;;;;;;;;;;;5.10;12.30;;;;;;5093254;28;19932;-75
2021/12/05 10:11:33;;;;;;;;;;;5.30;11.20;;;;;;5078216;28;20011;-76
2021/12/05 10:16:57;;;;;;;;;;;5.40;9.20;;;;;;5095060;27;19924;-76
2021/12/05 10:36:15;;;;;;;;;;;5.90;5.00;;;;;;5095990;28;19977;-76
2021/12/05 10:38:48;;;;;;;;;;;5.80;6.50;;;;;;5095598;28;19938;-77
2021/12/05 10:41:45;;;;;;;;;;;5.80;4.70;;;;;;5093214;28;20413;-76
2021/12/05 10:44:13;;;;;;;;;;;5.70;5.10;;;;;;5095782;28;19924;-75
2021/12/05 10:46:42;;;;;;;;;;;5.80;5.50;;;;;;5097736;28;20046;-75
2021/12/05 10:49:11;;;;;;;;;;;5.90;5.20;;;;;;5092290;28;20009;-75
2021/12/05 10:51:40;;;;;;;;;;;5.70;5.80;;;;;;5112396;27;19931;-75
2021/12/05 10:54:09;;;;;;;;;;;5.70;4.00;;;;;;5101952;28;20019;-75
2021/12/05 10:56:40;;;;;;;;;;;5.90;5.20;;;;;;5098579;28;20044;-75
2021/12/05 10:59:09;;;;;;;;;;;6.10;4.10;;;;;;5110684;27;20334;-74
2021/12/05 11:01:40;;;;;;;;;;;6.30;2.40;;;;;;5098133;28;19924;-74
2021/12/05 11:04:09;;;;;;;;;;;6.40;2.50;;;;;;5102652;28;19932;-74
2021/12/05 11:06:40;;;;;;;;;;;6.50;2.20;;;;;;5100514;28;20422;-75
2021/12/05 11:09:14;;;;;;;;;;;6.50;1.00;;;;;;5096016;28;20319;-75
2021/12/05 11:11:43;;;;;;;;;;;6.40;1.00;;;;;;5098443;28;20015;-75
2021/12/05 11:14:14;;;;;;;;;;;6.50;1.00;;;;;;5099045;28;20567;-75
2021/12/05 11:16:46;;;;;;;;;;;6.40;1.00;;;;;;5102081;28;19923;-75
2021/12/05 11:19:16;;;;;;;;;;;6.40;1.00;;;;;;5096671;28;19931;-75
2021/12/05 11:21:48;;;;;;;;;;;6.40;1.00;;;;;;5098075;28;19978;-75
2021/12/05 11:24:20;;;;;;;;;;;6.30;1.00;;;;;;5094979;28;19998;-76
2021/12/05 11:27:03;;;;;;;;;;;6.40;1.00;;;;;;5097604;28;20448;-74
2021/12/05 11:29:40;;;;;;;;;;;6.30;1.00;;;;;;5091643;28;19924;-74
2021/12/05 11:32:08;;;;;;;;;;;6.20;1.00;;;;;;5098531;28;19967;-75
2021/12/05 11:34:39;;;;;;;;;;;6.10;1.50;;;;;;5099631;28;19958;-74
2021/12/05 11:37:07;;;;;;;;;;;6.20;2.00;;;;;;5101807;27;19934;-76
2021/12/05 11:39:39;;;;;;;;;;;6.40;1.00;;;;;;5098202;28;20015;-75
2021/12/05 11:42:12;;;;;;;;;;;6.50;1.40;;;;;;5102255;27;19951;-75
2021/12/05 11:44:41;;;;;;;;;;;6.70;1.00;;;;;;5101326;28;19971;-75
2021/12/05 11:47:16;;;;;;;;;;;6.90;1.00;;;;;;5105383;27;19928;-75
2021/12/05 11:49:44;;;;;;;;;;;7.10;1.00;;;;;;5094738;27;19928;-76
2021/12/05 11:52:13;;;;;;;;;;;7.00;1.00;;;;;;5103412;28;20018;-75
2021/12/05 11:54:43;;;;;;;;;;;6.80;1.00;;;;;;5101824;28;20002;-75
2021/12/05 11:57:18;;;;;;;;;;;6.60;1.00;;;;;;5103195;27;20055;-75
2021/12/05 11:59:47;;;;;;;;;;;6.70;1.00;;;;;;5095446;28;19935;-75
2021/12/05 12:02:16;;;;;;;;;;;6.70;1.00;;;;;;5100298;27;19931;-75
2021/12/05 12:04:46;;;;;;;;;;;6.70;1.00;;;;;;5102478;27;20659;-76
2021/12/05 12:07:24;;;;;;;;;;;6.80;1.00;;;;;;5097996;28;19924;-74
2021/12/05 12:09:54;;;;;;;;;;;6.70;1.00;;;;;;5094123;28;20032;-75
2021/12/05 12:12:25;;;;;;;;;;;6.80;1.00;;;;;;5105542;28;20003;-75
2021/12/05 12:14:53;;;;;;;;;;;6.50;1.00;;;;;;5100859;28;19927;-74
2021/12/05 12:17:21;;;;;;;;;;;6.80;1.00;;;;;;5102151;27;19982;-75
2021/12/05 12:19:50;;;;;;;;;;;6.70;1.00;;;;;;5092898;27;19932;-75
2021/12/05 12:22:20;;;;;;;;;;;6.60;1.00;;;;;;5104184;28;20026;-75
2021/12/05 12:24:50;;;;;;;;;;;6.40;1.00;;;;;;5101253;28;19934;-74
2021/12/05 12:27:21;;;;;;;;;;;6.50;1.00;;;;;;5103423;27;19931;-75
2021/12/05 12:29:52;;;;;;;;;;;6.40;1.00;;;;;;5095365;28;19928;-75
2021/12/05 12:32:23;;;;;;;;;;;6.40;1.00;;;;;;5101954;27;19928;-75
2021/12/05 12:34:57;;;;;;;;;;;6.30;1.00;;;;;;5101013;28;20038;-74
2021/12/05 12:37:25;;;;;;;;;;;6.20;1.00;;;;;;5096886;28;20371;-76
2021/12/05 12:39:53;;;;;;;;;;;6.20;1.00;;;;;;5075991;28;19958;-75
2021/12/05 12:42:25;;;;;;;;;;;6.20;1.00;;;;;;5103374;28;20413;-75
2021/12/05 12:45:02;;;;;;;;;;;6.10;1.00;;;;;;5104286;28;19932;-76
2021/12/05 12:47:31;;;;;;;;;;;6.10;1.00;;;;;;5098121;28;20015;-75
2021/12/05 12:50:13;;;;;;;;;;;6.10;1.00;;;;;;5093717;28;19932;-75
2021/12/05 12:52:55;;;;;;;;;;;6.10;1.00;;;;;;5098422;27;20384;-75
2021/12/05 12:55:27;;;;;;;;;;;6.20;1.00;;;;;;5100582;28;20009;-75
2021/12/05 12:57:58;;;;;;;;;;;6.30;1.00;;;;;;5100875;28;19928;-75
2021/12/05 13:00:29;;;;;;;;;;;6.50;1.00;;;;;;5093897;28;20365;-75
2021/12/05 13:03:13;;;;;;;;;;;6.60;1.00;;;;;;5115367;27;19928;-75
2021/12/05 13:07:16;;;;;;;;;;;6.70;1.00;;;;;;5103014;28;20019;-75
2021/12/05 13:11:45;;;;;;;;;;;6.30;1.00;;;;;;5091944;27;20437;-70
2021/12/05 13:14:14;;;;;;;;;;;6.30;1.00;;;;;;5100270;27;19924;-71
2021/12/05 13:16:46;;;;;;;;;;;6.30;1.00;;;;;;5098553;28;19943;-69
2021/12/05 13:19:16;;;;;;;;;;;6.10;2.10;;;;;;5096892;27;19924;-71
2021/12/05 13:21:45;;;;;;;;;;;5.70;3.80;;;;;;5093185;28;20020;-69
2021/12/05 13:24:18;;;;;;;;;;;5.50;5.80;;;;;;5101319;28;19923;-74
2021/12/05 13:26:46;;;;;;;;;;;5.50;7.60;;;;;;5098192;27;20501;-72
2021/12/05 13:29:16;;;;;;;;;;;5.40;9.50;;;;;;5096324;28;20399;-72
2021/12/05 13:31:47;;;;;;;;;;;4.70;16.00;;;;;;5099356;28;20330;-75
2021/12/05 13:34:16;;;;;;;;;;;4.50;19.20;;;;;;5097402;27;20027;-72
2021/12/05 13:36:44;;;;;;;;;;;4.10;21.40;;;;;;5100417;28;19934;-74
2021/12/05 13:39:27;;;;;;;;;;;3.90;24.00;;;;;;5096291;28;19923;-73
2021/12/05 13:42:00;;;;;;;;;;;3.80;27.70;;;;;;5098197;27;19977;-73
2021/12/05 13:44:44;;;;;;;;;;;3.90;28.40;;;;;;5101354;27;19930;-72
2021/12/05 13:47:19;;;;;;;;;;;4.00;29.30;;;;;;5080231;28;19924;-74
2021/12/05 13:49:47;;;;;;;;;;;4.00;30.10;;;;;;5089052;27;19924;-74
2021/12/05 13:52:31;;;;;;;;;;;4.20;31.90;;;;;;5097518;28;19927;-69
2021/12/05 13:55:20;;;;;;;;;;;4.20;30.80;;;;;;5095916;28;20306;-73
2021/12/05 13:58:04;;;;;;;;;;;4.20;28.90;;;;;;5101873;28;20182;-75
2021/12/05 14:00:39;;;;;;;;;;;4.30;27.60;;;;;;5088702;28;19967;-74
2021/12/05 14:03:10;;;;;;;;;;;4.30;26.00;;;;;;5079606;28;19977;-73
2021/12/05 14:05:46;;;;;;;;;;;4.30;26.00;;;;;;5096629;28;19989;-74
2021/12/05 14:08:14;;;;;;;;;;;4.30;26.00;;;;;;5098231;27;19963;-74
2021/12/05 14:10:43;;;;;;;;;;;4.40;26.10;;;;;;5090818;28;19927;-73
2021/12/05 14:13:12;;;;;;;;;;;4.40;24.20;;;;;;5098237;28;20049;-74
2021/12/05 14:15:40;;;;;;;;;;;4.40;24.90;;;;;;5098731;27;19931;-73
2021/12/05 14:18:19;;;;;;;;;;;4.50;26.10;;;;;;5095392;28;19997;-74
2021/12/05 14:20:47;;;;;;;;;;;4.40;24.80;;;;;;5090964;27;20010;-74
2021/12/05 14:23:20;;;;;;;;;;;4.50;24.60;;;;;;5096744;28;19927;-70
2021/12/05 14:25:49;;;;;;;;;;;4.50;25.90;;;;;;5096561;28;19924;-70
2021/12/05 14:28:17;;;;;;;;;;;4.50;26.10;;;;;;5098311;27;19950;-70
2021/12/05 14:30:45;;;;;;;;;;;4.50;25.60;;;;;;5091784;28;19969;-70
2021/12/05 14:33:15;;;;;;;;;;;4.50;26.10;;;;;;5099928;28;19927;-71
2021/12/05 14:35:44;;;;;;;;;;;4.40;25.30;;;;;;5094442;28;20006;-70
2021/12/05 14:38:12;;;;;;;;;;;4.40;24.40;;;;;;5092676;28;19936;-70
2021/12/05 14:40:40;;;;;;;;;;;4.50;25.30;;;;;;5114773;28;19927;-71
2021/12/05 14:43:10;;;;;;;;;;;4.50;26.10;;;;;;5097024;28;19935;-71
2021/12/05 14:45:40;;;;;;;;;;;4.50;26.20;;;;;;5095313;28;19924;-71
2021/12/05 14:48:09;;;;;;;;;;;4.50;28.20;;;;;;5094772;28;19936;-69
2021/12/05 14:50:51;;;;;;;;;;;4.40;28.90;;;;;;5086244;28;20026;-70
2021/12/05 14:53:20;;;;;;;;;;;4.40;28.50;;;;;;5074270;28;19932;-70
2021/12/05 14:55:56;;;;;;;;;;;4.40;29.10;;;;;;5093011;28;19924;-70
2021/12/05 14:58:25;;;;;;;;;;;4.20;29.60;;;;;;5094638;28;19972;-68
2021/12/05 15:00:55;;;;;;;;;;;4.20;29.20;;;;;;5093506;28;20000;-70
2021/12/05 15:03:25;;;;;;;;;;;4.30;30.00;;;;;;5100440;28;19928;-70
2021/12/05 15:05:57;;;;;;;;;;;4.20;30.80;;;;;;5097314;28;19943;-70
2021/12/05 15:08:26;;;;;;;;;;;4.20;33.70;;;;;;5095875;28;19927;-69
2021/12/05 15:10:56;;;;;;;;;;;4.10;33.10;;;;;;5090826;28;20372;-70
2021/12/05 15:13:24;;;;;;;;;;;4.00;33.40;;;;;;5099675;28;20395;-69
2021/12/05 15:15:53;;;;;;;;;;;3.90;33.00;;;;;;5101781;28;19928;-69
2021/12/05 15:18:23;;;;;;;;;;;3.80;34.40;;;;;;5094279;28;20010;-69
2021/12/05 15:20:50;;;;;;;;;;;3.90;33.70;;;;;;5096550;27;20417;-71
2021/12/05 15:23:21;;;;;;;;;;;3.80;32.90;;;;;;5101306;28;19928;-68
2021/12/05 15:25:49;;;;;;;;;;;3.80;32.90;;;;;;5103059;27;19924;-70
2021/12/05 15:28:18;;;;;;;;;;;3.80;33.60;;;;;;5100023;28;19927;-70
2021/12/05 15:30:47;;;;;;;;;;;3.70;34.50;;;;;;5098454;28;20611;-70
2021/12/05 15:33:17;;;;;;;;;;;3.60;35.80;;;;;;5101757;27;20405;-69
2021/12/05 15:35:46;;;;;;;;;;;3.60;36.40;;;;;;5103360;28;20420;-69
2021/12/05 15:38:15;;;;;;;;;;;3.50;37.10;;;;;;5101343;28;19936;-69
2021/12/05 15:40:46;;;;;;;;;;;3.50;38.30;;;;;;5097963;28;20018;-71
2021/12/05 15:43:15;;;;;;;;;;;3.40;39.40;;;;;;5101477;27;19955;-69
2021/12/05 15:45:45;;;;;;;;;;;3.40;39.70;;;;;;5097192;27;20370;-70
2021/12/05 15:48:21;;;;;;;;;;;3.40;39.80;;;;;;5100309;27;20413;-70
2021/12/05 15:50:50;;;;;;;;;;;3.40;40.30;;;;;;5096190;28;19924;-69
2021/12/05 15:53:19;;;;;;;;;;;3.30;40.10;;;;;;5100065;27;19928;-70
2021/12/05 15:55:52;;;;;;;;;;;3.30;40.80;;;;;;5096284;28;19932;-68
2021/12/05 15:58:24;;;;;;;;;;;3.20;40.70;;;;;;5098295;28;19932;-70
2021/12/05 16:00:54;;;;;;;;;;;3.20;41.10;;;;;;5094081;27;19924;-69
2021/12/05 16:03:27;;;;;;;;;;;3.20;41.60;;;;;;5098200;27;19930;-69
2021/12/05 16:05:56;;;;;;;;;;;3.10;40.70;;;;;;5100661;28;20019;-69
2021/12/05 16:08:28;;;;;;;;;;;3.10;41.80;;;;;;5095807;28;20337;-70
2021/12/05 16:10:59;;;;;;;;;;;3.10;42.60;;;;;;5096209;27;20524;-70
2021/12/05 16:13:32;;;;;;;;;;;3.10;42.70;;;;;;5100697;28;19986;-70
2021/12/05 16:16:07;;;;;;;;;;;3.10;42.90;;;;;;5098141;28;20066;-70
2021/12/05 16:18:36;;;;;;;;;;;3.10;42.70;;;;;;5088589;28;20046;-70
2021/12/05 16:21:06;;;;;;;;;;;3.00;42.70;;;;;;5097440;27;19932;-71
2021/12/05 16:23:36;;;;;;;;;;;3.00;43.20;;;;;;5093737;27;20016;-70
2021/12/05 16:26:09;;;;;;;;;;;3.00;43.10;;;;;;5097780;28;20006;-70
2021/12/05 16:28:38;;;;;;;;;;;3.00;42.90;;;;;;5099867;27;19927;-69
2021/12/05 16:31:11;;;;;;;;;;;2.90;42.20;;;;;;5094345;28;20007;-70
2021/12/05 16:33:41;;;;;;;;;;;2.90;41.70;;;;;;5098166;28;19924;-71
2021/12/05 16:36:10;;;;;;;;;;;2.90;41.00;;;;;;5099643;28;19923;-70
2021/12/05 16:38:41;;;;;;;;;;;2.80;40.40;;;;;;5099813;27;19953;-70
2021/12/05 16:41:20;;;;;;;;;;;2.80;40.30;;;;;;5096029;28;19931;-70
2021/12/05 16:43:54;;;;;;;;;;;2.90;39.60;;;;;;5098827;28;20186;-70
2021/12/05 16:46:23;;;;;;;;;;;2.90;38.60;;;;;;5081514;28;19925;-70
2021/12/05 16:48:52;;;;;;;;;;;2.80;37.60;;;;;;5081719;28;19924;-70
2021/12/05 16:51:22;;;;;;;;;;;2.80;36.90;;;;;;5082039;28;19924;-69
2021/12/05 16:53:58;;;;;;;;;;;2.70;37.00;;;;;;5093027;28;19928;-69
2021/12/05 16:56:40;;;;;;;;;;;2.70;37.60;;;;;;5098428;27;19936;-70
2021/12/05 16:59:11;;;;;;;;;;;2.70;37.70;;;;;;5091859;28;19940;-70
2021/12/05 17:01:44;;;;;;;;;;;2.60;37.60;;;;;;5095003;28;19930;-70
2021/12/05 17:04:12;;;;;;;;;;;2.60;37.90;;;;;;5098241;27;20010;-70
2021/12/05 17:06:58;;;;;;;;;;;2.60;38.00;;;;;;5101641;27;19946;-70
2021/12/05 17:09:25;;;;;;;;;;;2.60;38.90;;;;;;5087233;28;20030;-69
2021/12/05 17:11:55;;;;;;;;;;;2.70;38.10;;;;;;5098422;27;20022;-69
2021/12/05 17:14:25;;;;;;;;;;;2.70;36.90;;;;;;5096983;28;19924;-71
2021/12/05 17:16:55;;;;;;;;;;;2.70;36.20;;;;;;5101898;28;20019;-70
2021/12/05 17:19:29;;;;;;;;;;;2.70;36.00;;;;;;5090691;27;19935;-70
2021/12/05 17:21:57;;;;;;;;;;;2.70;36.20;;;;;;5099141;28;20306;-70
2021/12/05 17:24:26;;;;;;;;;;;2.60;36.60;;;;;;5095230;27;20014;-70
2021/12/05 17:26:57;;;;;;;;;;;2.60;36.50;;;;;;5098176;27;20372;-69
2021/12/05 17:29:27;;;;;;;;;;;2.60;36.50;;;;;;5094562;28;19931;-70
2021/12/05 17:31:57;;;;;;;;;;;2.60;36.60;;;;;;5098171;27;20314;-71
2021/12/05 17:34:26;;;;;;;;;;;2.60;37.20;;;;;;5094938;28;20003;-71
2021/12/05 17:36:58;;;;;;;;;;;2.70;37.00;;;;;;5095268;28;19955;-70
2021/12/05 17:39:28;;;;;;;;;;;2.70;36.20;;;;;;5094134;27;19931;-70
2021/12/05 17:41:59;;;;;;;;;;;2.70;36.10;;;;;;5097065;27;19932;-71
2021/12/05 17:44:27;;;;;;;;;;;2.70;36.20;;;;;;5094893;28;19928;-70
2021/12/05 17:46:58;;;;;;;;;;;2.70;35.90;;;;;;5094308;28;19924;-71
2021/12/05 17:49:27;;;;;;;;;;;2.70;36.00;;;;;;5096856;28;19928;-70
2021/12/05 17:51:58;;;;;;;;;;;2.80;36.10;;;;;;5099052;28;20030;-70
2021/12/05 17:54:31;;;;;;;;;;;2.80;35.70;;;;;;5093555;28;19977;-70
2021/12/05 17:57:07;;;;;;;;;;;2.80;35.40;;;;;;5104658;28;19934;-71
2021/12/05 17:59:54;;;;;;;;;;;2.90;35.80;;;;;;5096979;27;20446;-70
2021/12/05 18:05:10;;;;;;;;;;;2.90;35.00;;;;;;5092345;28;19936;-70
2021/12/05 18:07:39;;;;;;;;;;;2.90;34.60;;;;;;5094558;28;19924;-72
2021/12/05 18:10:07;;;;;;;;;;;2.90;34.50;;;;;;5096426;28;19932;-71
2021/12/05 18:12:37;;;;;;;;;;;2.90;34.70;;;;;;5100498;28;20318;-70
2021/12/05 18:15:08;;;;;;;;;;;2.90;35.00;;;;;;5095878;28;19924;-72
2021/12/05 18:17:36;;;;;;;;;;;2.90;35.60;;;;;;5099282;28;19923;-70
2021/12/05 18:20:11;;;;;;;;;;;2.90;35.80;;;;;;5095040;28;20102;-70
2021/12/05 18:22:39;;;;;;;;;;;2.90;35.60;;;;;;5092630;28;19932;-70
2021/12/05 18:25:09;;;;;;;;;;;2.90;35.80;;;;;;5098019;28;19924;-70
2021/12/05 18:27:39;;;;;;;;;;;2.90;35.90;;;;;;5097372;28;19953;-70
2021/12/05 18:30:12;;;;;;;;;;;2.90;36.30;;;;;;5095820;27;20298;-69
2021/12/05 18:32:40;;;;;;;;;;;2.80;36.30;;;;;;5095945;28;19932;-71
2021/12/05 18:35:09;;;;;;;;;;;2.90;36.80;;;;;;5096845;28;19977;-70
2021/12/05 18:37:37;;;;;;;;;;;2.90;36.30;;;;;;5097840;28;19928;-71
2021/12/05 18:40:06;;;;;;;;;;;2.90;35.90;;;;;;5088416;28;20092;-71
2021/12/05 18:42:34;;;;;;;;;;;3.00;35.40;;;;;;5097081;28;20003;-71
2021/12/05 18:45:05;;;;;;;;;;;3.00;34.70;;;;;;5094205;28;19963;-69
2021/12/05 18:47:33;;;;;;;;;;;3.00;34.70;;;;;;5092509;28;19999;-71
2021/12/05 18:50:02;;;;;;;;;;;3.00;34.50;;;;;;5095910;28;19998;-71
2021/12/05 18:52:33;;;;;;;;;;;2.90;34.30;;;;;;5098967;28;19924;-71
2021/12/05 18:55:04;;;;;;;;;;;2.90;36.10;;;;;;5094344;28;19935;-70
2021/12/05 18:57:33;;;;;;;;;;;2.80;36.40;;;;;;5090566;28;19940;-70
2021/12/05 19:00:07;;;;;;;;;;;2.80;36.90;;;;;;5091071;28;19932;-70
2021/12/05 19:05:33;;;;;;;;;;;2.70;39.00;;;;;;5092731;28;19924;-71
2021/12/05 19:08:19;;;;;;;;;;;2.60;40.20;;;;;;5093743;28;19931;-70
2021/12/05 19:13:38;;;;;;;;;;;2.60;40.40;;;;;;5092593;28;19969;-70